createdAt,value
2022-09-28T04:03:02.653Z,82.26
2022-09-28T04:07:05.219Z,83.14
2022-09-28T04:11:08.874Z,83.22
2022-09-28T04:15:11.710Z,82.47
2022-09-28T04:19:15.894Z,82.71
2022-09-28T04:23:34.559Z,82.70
2022-09-28T04:27:54.554Z,82.70
2022-09-28T04:31:57.394Z,82.61
2022-09-28T04:36:12.547Z,82.72
2022-09-28T04:40:15.228Z,83.00
2022-09-28T04:44:18.720Z,82.95
2022-09-28T04:48:23.556Z,83.07
2022-09-28T04:52:43.757Z,83.50
2022-09-28T04:56:46.278Z,83.16
2022-09-28T05:00:49.313Z,83.20
2022-09-28T05:05:06.835Z,82.71
2022-09-28T05:09:38.449Z,83.25
2022-09-28T05:13:43.351Z,82.53
2022-09-28T05:17:45.906Z,83.08
2022-09-28T05:22:11.293Z,81.96
2022-09-28T05:26:18.806Z,82.78
2022-09-28T05:30:22.029Z,82.49
2022-09-28T05:34:42.601Z,82.87
2022-09-28T05:38:49.250Z,83.35
2022-09-28T05:42:53.087Z,83.41
2022-09-28T05:46:55.593Z,82.69
2022-09-28T05:50:59.626Z,82.53
2022-09-28T05:55:03.289Z,81.73
2022-09-28T05:59:07.214Z,80.84
2022-09-28T06:03:13.158Z,80.91
2022-09-28T06:07:15.761Z,80.71
2022-09-28T06:11:19.007Z,81.18
2022-09-28T06:15:24.974Z,81.18
2022-09-28T06:19:27.551Z,80.77
2022-09-28T06:23:49.504Z,80.88
2022-09-28T06:27:57.713Z,81.22
2022-09-28T06:32:02.215Z,81.11
2022-09-28T06:36:04.981Z,81.12
2022-09-28T06:40:08.411Z,81.41
2022-09-28T06:44:11.017Z,81.40
2022-09-28T06:48:34.166Z,82.15
2022-09-28T06:52:37.286Z,82.43
2022-09-28T06:56:47.148Z,81.34
2022-09-28T07:00:52.069Z,79.92
2022-09-28T07:04:56.064Z,79.28
2022-09-28T07:09:31.723Z,78.14
2022-09-28T07:13:55.901Z,77.97
2022-09-28T07:18:03.246Z,77.17
2022-09-28T07:22:08.019Z,76.55
2022-09-28T07:26:10.747Z,75.32
2022-09-28T07:30:20.122Z,75.46
2022-09-28T07:34:45.548Z,75.99
2022-09-28T07:38:55.198Z,76.42
2022-09-28T07:43:04.438Z,75.93
2022-09-28T07:47:06.983Z,76.30
2022-09-28T07:51:43.471Z,76.76
2022-09-28T07:55:57.520Z,76.86
2022-09-28T08:00:11.255Z,76.09
2022-09-28T08:04:16.830Z,76.89
2022-09-28T08:08:21.160Z,76.16
2022-09-28T08:12:25.464Z,75.38
2022-09-28T08:21:06.063Z,75.59
2022-09-28T08:25:09.387Z,75.51
2022-09-28T08:29:15.211Z,72.79
2022-09-28T08:33:41.988Z,72.50
2022-09-28T08:38:03.387Z,72.02
2022-09-28T08:42:45.695Z,70.24
2022-09-28T08:47:46.263Z,71.57
2022-09-28T08:52:17.835Z,71.67
2022-09-28T08:56:40.127Z,71.29
2022-09-28T09:00:47.297Z,71.56
2022-09-28T09:04:52.595Z,71.70
2022-09-28T09:09:11.589Z,71.06
2022-09-28T09:13:41.598Z,71.97
2022-09-28T09:17:58.840Z,71.77
2022-09-28T09:22:17.457Z,71.82
2022-09-28T09:26:25.511Z,70.48
2022-09-28T09:30:32.084Z,70.32
2022-09-28T09:34:56.138Z,68.87
2022-09-28T09:39:41.839Z,68.42
2022-09-28T09:44:29.486Z,67.33
2022-09-28T09:48:58.409Z,66.60
2022-09-28T09:53:05.992Z,66.35
2022-09-28T09:57:15.882Z,64.86
2022-09-28T10:01:38.864Z,66.59
2022-09-28T10:05:58.983Z,66.66
2022-09-28T10:10:03.344Z,66.02
2022-09-28T10:14:26.715Z,67.22
2022-09-28T10:18:37.474Z,65.62
2022-09-28T10:23:02.060Z,66.20
2022-09-28T10:27:08.454Z,65.44
2022-09-28T10:31:39.278Z,65.36
2022-09-28T10:35:47.789Z,66.86
2022-09-28T10:39:53.180Z,66.58
2022-09-28T10:44:06.124Z,65.29
2022-09-28T10:48:50.265Z,65.98
2022-09-28T10:52:53.263Z,64.19
2022-09-28T10:57:29.183Z,63.27
2022-09-28T11:01:39.609Z,63.48
2022-09-28T11:05:43.801Z,62.66
2022-09-28T11:09:49.756Z,63.19
2022-09-28T11:13:54.591Z,62.27
2022-09-28T11:18:21.171Z,63.21
2022-09-28T11:22:30.020Z,63.32
2022-09-28T11:26:41.700Z,62.78
2022-09-28T11:30:52.178Z,62.42
2022-09-28T11:35:20.656Z,62.40
2022-09-28T11:39:33.802Z,61.28
2022-09-28T11:43:52.249Z,61.17
2022-09-28T11:48:00.518Z,61.84
2022-09-28T11:52:11.953Z,62.86
2022-09-28T11:56:26.958Z,64.42
2022-09-28T12:00:34.967Z,64.32
2022-09-28T12:04:43.328Z,64.25
2022-09-28T12:08:54.250Z,62.95
2022-09-28T12:13:28.461Z,61.05
2022-09-28T12:17:37.385Z,59.80
2022-09-28T12:21:45.262Z,58.90
2022-09-28T12:25:52.851Z,58.69
2022-09-28T12:30:04.067Z,58.86
2022-09-28T12:34:06.838Z,59.57
2022-09-28T12:38:27.802Z,59.29
2022-09-28T12:42:47.169Z,59.62
2022-09-28T12:47:32.059Z,59.96
2022-09-28T12:51:46.618Z,57.60
2022-09-28T12:55:58.918Z,59.31
2022-09-28T13:00:06.604Z,57.72
2022-09-28T13:04:47.233Z,56.72
2022-09-28T13:09:03.303Z,57.44
2022-09-28T13:13:18.486Z,61.13
2022-09-28T13:17:32.331Z,63.06
2022-09-28T13:21:42.734Z,64.41
2022-09-28T13:25:51.798Z,65.04
2022-09-28T13:29:55.793Z,64.82
2022-09-28T13:34:02.908Z,64.43
2022-09-28T13:38:50.197Z,65.40
2022-09-28T13:43:06.941Z,64.41
2022-09-28T13:47:25.564Z,64.07
2022-09-28T13:51:43.396Z,63.55
2022-09-28T13:55:58.414Z,63.37
2022-09-28T14:00:10.607Z,65.04
2022-09-28T14:04:19.714Z,66.84
2022-09-28T14:08:34.539Z,66.70
2022-09-28T14:12:49.556Z,64.91
2022-09-28T14:17:00.075Z,63.95
2022-09-28T14:21:28.250Z,65.10
2022-09-28T14:25:32.898Z,63.22
2022-09-28T14:29:38.875Z,64.30
2022-09-28T14:33:42.893Z,63.16
2022-09-28T14:38:07.660Z,60.79
2022-09-28T14:42:15.588Z,58.32
2022-09-28T14:46:32.308Z,57.48
2022-09-28T14:50:34.929Z,55.89
2022-09-28T14:54:46.300Z,55.57
2022-09-28T14:58:54.583Z,55.71
2022-09-28T15:03:01.956Z,57.67
2022-09-28T15:07:04.417Z,58.53
2022-09-28T15:11:11.775Z,58.96
2022-09-28T15:15:26.353Z,59.93
2022-09-28T15:19:41.413Z,61.14
2022-09-28T15:23:46.831Z,61.33
2022-09-28T15:27:54.094Z,59.94
2022-09-28T15:31:56.605Z,57.97
2022-09-28T15:36:04.687Z,56.96
2022-09-28T15:40:14.403Z,58.01
2022-09-28T15:44:32.863Z,59.34
2022-09-28T15:48:46.387Z,59.74
2022-09-28T15:52:56.821Z,62.10
2022-09-28T15:57:01.887Z,62.98
2022-09-28T16:01:27.623Z,63.23
2022-09-28T16:05:35.752Z,62.52
2022-09-28T16:09:54.681Z,62.98
2022-09-28T16:14:04.379Z,62.23
2022-09-28T16:18:17.924Z,62.53
2022-09-28T16:22:26.722Z,61.96
2022-09-28T16:26:35.355Z,62.37
2022-09-28T16:30:42.409Z,63.47
2022-09-28T16:34:44.931Z,63.81
2022-09-28T16:38:48.207Z,65.22
2022-09-28T16:42:54.810Z,66.97
2022-09-28T16:47:00.158Z,67.74
2022-09-28T16:51:02.653Z,67.45
2022-09-28T16:55:39.648Z,68.02
2022-09-28T16:59:44.561Z,68.18
2022-09-28T17:03:48.777Z,67.71
2022-09-28T17:08:00.399Z,67.71
2022-09-28T17:12:03.170Z,67.83
2022-09-28T17:16:11.215Z,68.07
2022-09-28T17:20:22.344Z,69.24
2022-09-28T17:24:24.825Z,69.41
2022-09-28T17:28:31.019Z,69.71
2022-09-28T17:32:35.132Z,70.56
2022-09-28T17:36:37.754Z,71.53
2022-09-28T17:40:41.154Z,72.38
2022-09-28T17:44:43.601Z,72.97
2022-09-28T17:48:47.459Z,73.11
2022-09-28T17:52:52.257Z,73.63
2022-09-28T17:56:54.712Z,75.13
2022-09-28T18:00:57.198Z,75.24
2022-09-28T18:05:00.986Z,75.18
2022-09-28T18:09:04.770Z,75.60
2022-09-28T18:13:07.768Z,76.07
2022-09-28T18:17:10.390Z,75.92
2022-09-28T18:21:14.902Z,76.38
2022-09-28T18:25:18.075Z,76.58
2022-09-28T18:29:20.735Z,76.54
2022-09-28T18:33:23.357Z,76.73
2022-09-28T18:37:27.274Z,76.62
2022-09-28T18:41:30.009Z,76.66
2022-09-28T18:45:33.041Z,76.68
2022-09-28T18:49:35.602Z,76.99
2022-09-28T18:53:39.964Z,77.15
2022-09-28T18:57:44.054Z,77.15
2022-09-28T19:01:46.889Z,77.04
2022-09-28T19:05:49.589Z,76.94
2022-09-28T19:09:53.742Z,76.86
2022-09-28T19:13:57.206Z,76.95
2022-09-28T19:17:59.761Z,77.15
2022-09-28T19:22:02.513Z,77.66
2022-09-28T19:26:08.707Z,77.56
2022-09-28T19:30:12.287Z,77.59
2022-09-28T19:34:14.748Z,77.66
2022-09-28T19:38:17.335Z,78.12
2022-09-28T19:42:21.258Z,78.02
2022-09-28T19:46:23.891Z,78.39
2022-09-28T19:50:26.584Z,78.89
2022-09-28T19:54:35.696Z,79.25
2022-09-28T19:58:40.597Z,79.52
2022-09-28T20:02:43.279Z,79.50
2022-09-28T20:06:45.913Z,79.33
2022-09-28T20:10:53.387Z,78.87
2022-09-28T20:14:57.734Z,79.24
2022-09-28T20:19:03.346Z,78.92
2022-09-28T20:23:06.006Z,78.95
2022-09-28T20:27:08.624Z,79.39
2022-09-28T20:31:17.522Z,79.42
2022-09-28T20:35:32.360Z,79.38
2022-09-28T20:39:35.771Z,79.77
2022-09-28T20:43:39.754Z,79.54
2022-09-28T20:47:43.680Z,79.96
2022-09-28T20:51:46.327Z,80.89
2022-09-28T20:55:48.892Z,80.95
2022-09-28T20:59:54.739Z,80.71
